createdAt,value
2019-03-10T00:02:12.962Z,83.94
2019-03-10T00:04:43.791Z,82.82
2019-03-10T00:07:15.345Z,82.77
2019-03-10T00:09:46.693Z,83.66
2019-03-10T00:12:19.222Z,83.95
2019-03-10T00:14:50.532Z,83.80
2019-03-10T00:17:21.894Z,82.53
2019-03-10T00:19:53.370Z,83.77
2019-03-10T00:22:24.939Z,83.76
2019-03-10T00:24:56.289Z,84.81
2019-03-10T00:27:27.546Z,85.17
2019-03-10T00:29:58.975Z,84.30
2019-03-10T00:32:31.602Z,84.66
2019-03-10T00:35:02.803Z,83.56
2019-03-10T00:37:34.247Z,84.12
2019-03-10T00:40:08.734Z,83.76
2019-03-10T00:42:58.448Z,83.47
2019-03-10T00:45:35.955Z,83.42
2019-03-10T00:48:30.364Z,83.51
2019-03-10T00:51:21.667Z,83.46
2019-03-10T00:53:53.199Z,83.40
2019-03-10T00:56:24.524Z,83.42
2019-03-10T00:58:55.793Z,83.38
2019-03-10T01:01:27.260Z,84.05
2019-03-10T01:03:58.697Z,83.42
2019-03-10T01:06:30.110Z,83.64
2019-03-10T01:09:01.589Z,84.04
2019-03-10T01:11:34.568Z,83.92
2019-03-10T01:14:05.893Z,83.42
2019-03-10T01:16:37.081Z,83.05
2019-03-10T01:19:08.456Z,83.18
2019-03-10T01:21:40.270Z,82.98
2019-03-10T01:24:11.718Z,82.89
2019-03-10T01:26:43.067Z,82.73
2019-03-10T01:29:14.539Z,82.44
2019-03-10T01:31:51.874Z,82.38
2019-03-10T01:34:45.547Z,83.28
2019-03-10T01:37:16.772Z,83.22
2019-03-10T01:39:48.029Z,83.30
2019-03-10T01:42:19.420Z,83.18
2019-03-10T01:44:50.773Z,82.72
2019-03-10T01:47:22.108Z,83.11
2019-03-10T01:49:53.309Z,82.37
2019-03-10T01:52:24.656Z,82.85
2019-03-10T01:54:56.013Z,82.20
2019-03-10T01:57:27.277Z,81.97
2019-03-10T01:59:58.691Z,82.75
2019-03-10T02:02:30.010Z,83.36
2019-03-10T02:05:01.365Z,83.33
2019-03-10T02:07:33.022Z,82.46
2019-03-10T02:10:06.847Z,82.51
2019-03-10T02:12:38.297Z,83.19
2019-03-10T02:15:12.502Z,82.88
2019-03-10T02:17:43.702Z,84.04
2019-03-10T02:20:17.297Z,84.53
2019-03-10T02:22:48.673Z,83.72
2019-03-10T02:25:20.123Z,83.67
2019-03-10T02:27:52.585Z,84.54
2019-03-10T02:30:23.985Z,84.42
2019-03-10T02:32:55.250Z,84.24
2019-03-10T02:35:26.676Z,85.24
2019-03-10T02:37:58.089Z,84.70
2019-03-10T02:40:29.433Z,85.00
2019-03-10T02:43:00.752Z,84.61
2019-03-10T02:45:32.001Z,84.43
2019-03-10T02:48:03.926Z,85.21
2019-03-10T02:50:35.354Z,85.30
2019-03-10T02:53:06.675Z,84.33
2019-03-10T02:55:37.971Z,84.00
2019-03-10T02:58:09.366Z,83.89
2019-03-10T03:00:40.711Z,83.79
2019-03-10T03:03:12.187Z,83.78
2019-03-10T03:05:43.566Z,83.90
2019-03-10T03:08:16.942Z,83.59
2019-03-10T03:10:48.077Z,83.67
2019-03-10T03:13:19.512Z,84.47
2019-03-10T03:15:50.847Z,84.79
2019-03-10T03:18:22.250Z,84.45
2019-03-10T03:20:53.770Z,84.35
2019-03-10T03:23:25.104Z,84.43
2019-03-10T03:25:56.338Z,83.76
2019-03-10T03:28:27.601Z,84.40
2019-03-10T03:30:59.100Z,83.77
2019-03-10T03:33:30.470Z,84.46
2019-03-10T03:36:05.069Z,84.53
2019-03-10T03:38:42.591Z,83.87
2019-03-10T03:41:19.886Z,83.72
2019-03-10T03:43:51.112Z,83.56
2019-03-10T03:46:22.452Z,84.00
2019-03-10T03:48:53.682Z,84.49
2019-03-10T03:51:25.097Z,84.13
2019-03-10T03:53:56.468Z,84.47
2019-03-10T03:56:28.078Z,84.43
2019-03-10T03:58:59.329Z,84.93
2019-03-10T04:01:32.201Z,83.66
2019-03-10T04:04:03.392Z,84.19
2019-03-10T04:06:34.734Z,84.45
2019-03-10T04:09:08.064Z,85.33
2019-03-10T04:11:39.387Z,84.45
2019-03-10T04:14:10.748Z,84.11
2019-03-10T04:16:42.088Z,84.83
2019-03-10T04:19:13.664Z,84.15
2019-03-10T04:21:45.195Z,84.51
2019-03-10T04:24:16.535Z,85.40
2019-03-10T04:26:47.953Z,85.48
2019-03-10T04:29:21.583Z,84.73
2019-03-10T04:31:52.330Z,85.51
2019-03-10T04:34:23.741Z,84.94
2019-03-10T04:36:55.000Z,85.12
2019-03-10T04:39:26.370Z,84.38
2019-03-10T04:41:57.615Z,85.10
2019-03-10T04:44:29.014Z,84.11
2019-03-10T04:47:00.475Z,84.12
2019-03-10T04:49:31.768Z,84.54
2019-03-10T04:52:03.182Z,85.20
2019-03-10T04:54:52.572Z,84.09
2019-03-10T04:57:24.362Z,85.10
2019-03-10T04:59:55.749Z,84.31
2019-03-10T05:02:27.707Z,84.46
2019-03-10T05:04:58.294Z,83.75
2019-03-10T05:07:29.377Z,84.24
2019-03-10T05:10:00.699Z,83.88
2019-03-10T05:12:32.382Z,83.84
2019-03-10T05:15:05.978Z,83.85
2019-03-10T05:17:37.316Z,82.90
2019-03-10T05:20:08.954Z,83.27
2019-03-10T05:22:40.435Z,82.64
2019-03-10T05:25:18.144Z,82.46
2019-03-10T05:27:49.522Z,82.81
2019-03-10T05:30:20.935Z,82.89
2019-03-10T05:32:52.315Z,81.54
2019-03-10T05:35:23.716Z,82.22
2019-03-10T05:37:55.018Z,81.68
2019-03-10T05:40:26.297Z,81.68
2019-03-10T05:42:57.696Z,81.01
2019-03-10T05:45:28.893Z,81.13
2019-03-10T05:48:00.223Z,80.89
2019-03-10T05:50:31.657Z,80.48
2019-03-10T05:53:03.016Z,80.63
2019-03-10T05:55:34.292Z,80.17
2019-03-10T05:58:05.757Z,79.83
2019-03-10T06:00:42.633Z,79.33
2019-03-10T06:03:10.286Z,79.15
2019-03-10T06:05:41.741Z,79.52
2019-03-10T06:08:13.091Z,78.42
2019-03-10T06:10:44.651Z,78.07
2019-03-10T06:13:15.914Z,78.09
2019-03-10T06:15:47.254Z,77.72
2019-03-10T06:18:18.436Z,77.79
2019-03-10T06:20:49.849Z,76.88
2019-03-10T06:23:21.171Z,76.76
2019-03-10T06:25:52.627Z,76.74
2019-03-10T06:28:23.908Z,76.25
2019-03-10T06:30:56.411Z,76.42
2019-03-10T06:33:28.008Z,75.81
2019-03-10T06:35:59.453Z,74.65
2019-03-10T06:38:30.891Z,75.46
2019-03-10T06:41:02.182Z,74.33
2019-03-10T06:43:33.656Z,74.18
2019-03-10T06:46:05.093Z,74.14
2019-03-10T06:48:37.633Z,73.62
2019-03-10T06:51:10.089Z,72.91
2019-03-10T06:53:41.348Z,73.29
2019-03-10T06:56:12.673Z,72.94
2019-03-10T06:58:44.073Z,72.49
2019-03-10T07:01:15.433Z,73.49
2019-03-10T07:03:46.787Z,72.10
2019-03-10T07:06:18.172Z,71.20
2019-03-10T07:08:49.566Z,70.79
2019-03-10T07:11:20.906Z,71.29
2019-03-10T07:13:52.256Z,70.31
2019-03-10T07:16:23.680Z,71.04
2019-03-10T07:18:55.135Z,69.80
2019-03-10T07:21:27.613Z,69.31
2019-03-10T07:23:59.421Z,69.18
2019-03-10T07:26:30.889Z,67.54
2019-03-10T07:29:03.973Z,68.14
2019-03-10T07:31:42.819Z,67.80
2019-03-10T07:34:21.311Z,66.58
2019-03-10T07:37:12.688Z,67.36
2019-03-10T07:40:03.621Z,67.83
2019-03-10T07:42:36.700Z,69.09
2019-03-10T07:45:16.851Z,68.46
2019-03-10T07:47:55.855Z,67.64
2019-03-10T07:50:28.759Z,67.69
2019-03-10T07:53:01.690Z,67.78
2019-03-10T07:55:37.485Z,67.85
2019-03-10T07:58:10.361Z,68.69
2019-03-10T08:00:54.887Z,67.53
2019-03-10T08:03:36.628Z,67.65
2019-03-10T08:06:25.043Z,66.88
2019-03-10T08:09:09.906Z,67.08
2019-03-10T08:12:01.261Z,66.80
2019-03-10T08:14:50.201Z,66.18
2019-03-10T08:17:32.228Z,66.63
2019-03-10T08:20:05.920Z,65.51
2019-03-10T08:22:38.928Z,66.00
2019-03-10T08:25:14.480Z,65.57
2019-03-10T08:28:00.936Z,65.32
2019-03-10T08:30:31.136Z,64.91
2019-03-10T08:33:19.934Z,64.73
2019-03-10T08:36:08.085Z,65.09
2019-03-10T08:38:41.057Z,63.66
2019-03-10T08:41:28.983Z,62.83
2019-03-10T08:44:04.709Z,63.77
2019-03-10T08:46:53.336Z,62.12
2019-03-10T08:49:26.385Z,61.76
2019-03-10T08:51:59.302Z,61.40
2019-03-10T08:54:38.206Z,61.40
2019-03-10T08:57:11.111Z,61.20
2019-03-10T08:59:44.022Z,61.11
2019-03-10T09:02:17.039Z,61.01
2019-03-10T09:05:06.142Z,61.81
2019-03-10T09:07:41.840Z,60.70
2019-03-10T09:10:20.775Z,61.06
2019-03-10T09:12:56.360Z,61.16
2019-03-10T09:15:44.216Z,60.45
2019-03-10T09:18:17.176Z,60.03
2019-03-10T09:21:02.210Z,59.57
2019-03-10T09:23:35.213Z,59.49
2019-03-10T09:26:14.023Z,59.73
2019-03-10T09:28:49.769Z,59.12
2019-03-10T09:31:28.698Z,58.32
2019-03-10T09:34:04.247Z,58.16
2019-03-10T09:36:53.770Z,56.83
2019-03-10T09:39:26.614Z,56.40
2019-03-10T09:42:15.532Z,55.53
2019-03-10T09:44:57.288Z,54.96
2019-03-10T09:47:44.942Z,55.17
2019-03-10T09:50:17.679Z,53.72
2019-03-10T09:53:08.618Z,52.38
2019-03-10T09:55:57.579Z,51.78
2019-03-10T09:58:31.371Z,51.32
2019-03-10T10:01:13.122Z,51.44
2019-03-10T10:03:48.926Z,50.54
2019-03-10T10:06:27.746Z,49.78
2019-03-10T10:09:17.781Z,50.41
2019-03-10T10:11:54.148Z,49.29
2019-03-10T10:14:27.183Z,49.59
2019-03-10T10:17:00.128Z,46.86
2019-03-10T10:19:36.354Z,46.34
2019-03-10T10:22:27.532Z,47.23
2019-03-10T10:25:00.393Z,46.30
2019-03-10T10:27:33.375Z,45.39
2019-03-10T10:30:12.764Z,44.39
2019-03-10T10:32:45.959Z,44.83
2019-03-10T10:35:35.423Z,45.03
2019-03-10T10:38:18.949Z,45.37
2019-03-10T10:40:57.883Z,44.84
2019-03-10T10:43:33.792Z,44.11
2019-03-10T10:46:22.853Z,43.70
2019-03-10T10:48:55.800Z,43.25
2019-03-10T10:51:31.471Z,43.26
2019-03-10T10:54:04.478Z,42.75
2019-03-10T10:56:37.466Z,41.83
2019-03-10T10:59:10.405Z,41.30
2019-03-10T11:02:00.529Z,41.25
2019-03-10T11:04:49.653Z,40.75
2019-03-10T11:07:37.515Z,39.99
2019-03-10T11:10:22.954Z,41.04
2019-03-10T11:13:12.109Z,41.12
2019-03-10T11:15:53.600Z,39.30
2019-03-10T11:18:25.829Z,40.52
2019-03-10T11:21:07.845Z,40.63
2019-03-10T11:23:46.680Z,38.88
2019-03-10T11:26:25.423Z,39.69
2019-03-10T11:29:03.805Z,39.04
2019-03-10T11:31:42.225Z,40.38
2019-03-10T11:34:27.291Z,40.32
2019-03-10T11:37:16.343Z,39.61
2019-03-10T11:39:49.425Z,39.48
2019-03-10T11:42:37.244Z,39.79
2019-03-10T11:45:11.538Z,39.97
2019-03-10T11:47:47.339Z,40.67
2019-03-10T11:50:29.500Z,40.24
2019-03-10T11:53:19.139Z,40.91
2019-03-10T11:55:49.241Z,41.07
2019-03-10T11:58:22.321Z,40.53
2019-03-10T12:00:55.685Z,40.27
2019-03-10T12:03:29.837Z,39.46
2019-03-10T12:06:05.737Z,38.88
2019-03-10T12:08:53.817Z,37.35
2019-03-10T12:11:25.644Z,38.70
2019-03-10T12:13:57.079Z,37.59
2019-03-10T12:16:31.017Z,37.60
2019-03-10T12:19:01.732Z,37.50
2019-03-10T12:21:33.283Z,37.46
2019-03-10T12:24:04.621Z,38.27
2019-03-10T12:26:36.097Z,38.25
2019-03-10T12:29:07.451Z,38.67
2019-03-10T12:31:38.786Z,38.50
2019-03-10T12:34:10.138Z,39.13
2019-03-10T12:36:41.548Z,38.61
2019-03-10T12:39:13.132Z,39.13
2019-03-10T12:41:44.587Z,38.03
2019-03-10T12:44:15.940Z,38.53
2019-03-10T12:46:47.407Z,39.09
2019-03-10T12:49:18.870Z,39.34
2019-03-10T12:51:50.354Z,38.57
2019-03-10T12:54:21.823Z,41.71
2019-03-10T12:56:53.112Z,43.76
2019-03-10T12:59:24.559Z,42.32
2019-03-10T13:01:55.876Z,42.27
2019-03-10T13:04:27.274Z,42.90
2019-03-10T13:06:58.655Z,42.47
2019-03-10T13:09:30.136Z,42.22
2019-03-10T13:12:01.496Z,41.67
2019-03-10T13:14:32.755Z,41.87
2019-03-10T13:17:04.169Z,42.35
2019-03-10T13:19:35.561Z,42.39
2019-03-10T13:22:07.042Z,45.06
2019-03-10T13:24:38.432Z,46.11
2019-03-10T13:27:10.167Z,50.69
2019-03-10T13:29:41.605Z,56.97
2019-03-10T13:32:13.101Z,62.10
2019-03-10T13:34:44.473Z,66.97
2019-03-10T13:37:16.449Z,69.20
2019-03-10T13:39:47.768Z,70.05
2019-03-10T13:42:19.194Z,70.96
2019-03-10T13:44:50.619Z,72.54
2019-03-10T13:47:21.931Z,72.87
2019-03-10T13:49:55.004Z,73.36
2019-03-10T13:52:26.420Z,73.51
2019-03-10T13:54:57.753Z,74.99
2019-03-10T13:57:30.659Z,76.29
2019-03-10T14:00:01.973Z,75.93
2019-03-10T14:02:34.703Z,76.58
2019-03-10T14:05:07.500Z,77.42
2019-03-10T14:07:39.065Z,77.91
2019-03-10T14:10:11.419Z,78.04
2019-03-10T14:12:42.836Z,78.47
2019-03-10T14:15:15.729Z,77.93
2019-03-10T14:17:47.158Z,77.99
2019-03-10T14:20:18.452Z,77.98
2019-03-10T14:22:49.776Z,76.77
2019-03-10T14:25:21.214Z,77.55
2019-03-10T14:27:52.516Z,78.26
2019-03-10T14:30:23.892Z,78.41
2019-03-10T14:32:55.357Z,79.01
2019-03-10T14:35:26.774Z,79.17
2019-03-10T14:37:58.244Z,78.45
2019-03-10T14:40:29.688Z,76.92
2019-03-10T14:43:00.856Z,77.56
2019-03-10T14:45:32.081Z,77.32
2019-03-10T14:48:03.411Z,78.91
2019-03-10T14:50:34.809Z,78.91
2019-03-10T14:53:05.992Z,79.30
2019-03-10T14:55:37.367Z,78.39
2019-03-10T14:58:08.591Z,79.04
2019-03-10T15:00:40.177Z,78.95
2019-03-10T15:03:12.115Z,79.24
2019-03-10T15:05:43.323Z,78.60
2019-03-10T15:08:14.628Z,78.51
2019-03-10T15:10:45.819Z,79.34
2019-03-10T15:13:17.080Z,79.17
2019-03-10T15:15:48.277Z,80.17
2019-03-10T15:18:19.595Z,79.18
2019-03-10T15:20:58.173Z,78.95
2019-03-10T15:23:32.697Z,77.98
2019-03-10T15:26:04.132Z,78.90
2019-03-10T15:28:35.458Z,79.49
2019-03-10T15:31:06.982Z,79.45
2019-03-10T15:33:38.319Z,79.45
2019-03-10T15:36:19.947Z,80.08
2019-03-10T15:38:42.936Z,79.96
2019-03-10T15:41:14.176Z,80.05
2019-03-10T15:43:45.256Z,79.68
2019-03-10T15:46:16.714Z,80.06
2019-03-10T15:48:48.491Z,81.24
2019-03-10T15:51:21.421Z,80.88
2019-03-10T15:53:52.863Z,80.35
2019-03-10T15:56:24.239Z,80.97
2019-03-10T15:58:55.668Z,80.03
2019-03-10T16:01:27.034Z,79.98
2019-03-10T16:04:00.330Z,80.30
2019-03-10T16:06:31.943Z,80.65
2019-03-10T16:09:03.288Z,80.20
2019-03-10T16:11:36.234Z,80.15
2019-03-10T16:14:07.670Z,80.09
2019-03-10T16:16:39.027Z,79.98
2019-03-10T16:19:10.376Z,80.00
2019-03-10T16:21:41.839Z,79.23
2019-03-10T16:24:13.286Z,80.01
2019-03-10T16:26:45.721Z,80.64
2019-03-10T16:29:17.098Z,81.12
2019-03-10T16:31:48.540Z,81.72
2019-03-10T16:34:19.981Z,81.19
2019-03-10T16:36:51.234Z,81.01
2019-03-10T16:39:23.228Z,81.07
2019-03-10T16:41:54.450Z,80.79
2019-03-10T16:44:25.666Z,80.40
2019-03-10T16:46:56.899Z,80.27
2019-03-10T16:49:28.249Z,80.56
2019-03-10T16:52:00.543Z,81.31
2019-03-10T16:54:31.628Z,81.34
2019-03-10T16:57:02.886Z,81.23
2019-03-10T16:59:34.413Z,82.12
2019-03-10T17:02:05.847Z,82.08
2019-03-10T17:04:37.098Z,81.58
2019-03-10T17:07:08.315Z,81.89
2019-03-10T17:09:39.918Z,81.43
2019-03-10T17:12:10.998Z,81.06
2019-03-10T17:14:42.263Z,80.36
2019-03-10T17:17:13.557Z,79.28
2019-03-10T17:19:44.894Z,79.12
2019-03-10T17:22:16.333Z,77.80
2019-03-10T17:24:47.571Z,77.05
2019-03-10T17:27:19.009Z,77.05
2019-03-10T17:29:51.853Z,76.69
2019-03-10T17:32:23.082Z,76.21
2019-03-10T17:34:54.515Z,75.73
2019-03-10T17:37:25.991Z,75.04
2019-03-10T17:39:58.956Z,73.37
2019-03-10T17:42:30.411Z,73.51
2019-03-10T17:45:02.127Z,73.41
2019-03-10T17:47:33.532Z,73.03
2019-03-10T17:50:06.845Z,72.39
2019-03-10T17:52:38.168Z,72.06
2019-03-10T17:55:11.906Z,71.65
2019-03-10T17:57:43.284Z,71.12
2019-03-10T18:00:39.003Z,71.84
2019-03-10T18:03:10.316Z,72.49
2019-03-10T18:05:41.687Z,71.75
2019-03-10T18:08:13.106Z,71.47
2019-03-10T18:10:44.453Z,71.70
2019-03-10T18:13:15.838Z,70.72
2019-03-10T18:15:47.220Z,70.76
2019-03-10T18:18:18.649Z,71.22
2019-03-10T18:20:50.092Z,70.75
2019-03-10T18:23:21.953Z,70.86
2019-03-10T18:25:53.393Z,70.67
2019-03-10T18:28:24.847Z,69.79
2019-03-10T18:30:56.298Z,69.75
2019-03-10T18:33:27.600Z,68.98
2019-03-10T18:36:00.249Z,69.20
2019-03-10T18:38:31.593Z,68.80
2019-03-10T18:41:02.903Z,68.24
2019-03-10T18:43:34.169Z,68.60
2019-03-10T18:46:05.633Z,67.75
2019-03-10T18:48:37.675Z,68.65
2019-03-10T18:51:10.160Z,67.51
2019-03-10T18:53:41.599Z,67.95
2019-03-10T18:56:12.961Z,67.20
2019-03-10T18:58:44.287Z,67.81
2019-03-10T19:01:17.024Z,65.90
2019-03-10T19:03:48.253Z,66.39
2019-03-10T19:06:19.437Z,67.38
2019-03-10T19:08:50.687Z,67.88
2019-03-10T19:11:22.071Z,67.27
2019-03-10T19:13:53.304Z,69.07
2019-03-10T19:16:24.659Z,69.80
2019-03-10T19:18:56.003Z,70.68
2019-03-10T19:21:27.320Z,70.69
2019-03-10T19:24:00.090Z,70.51
2019-03-10T19:26:31.330Z,70.66
2019-03-10T19:29:02.550Z,71.00
2019-03-10T19:31:33.803Z,71.44
2019-03-10T19:34:05.073Z,71.80
2019-03-10T19:36:37.629Z,71.73
2019-03-10T19:39:09.040Z,71.04
2019-03-10T19:41:41.763Z,72.07
2019-03-10T19:44:13.163Z,72.08
2019-03-10T19:46:44.933Z,71.44
2019-03-10T19:49:16.241Z,71.41
2019-03-10T19:51:48.758Z,70.58
2019-03-10T19:54:19.999Z,70.26
2019-03-10T19:56:51.209Z,71.04
2019-03-10T19:59:22.614Z,70.94
2019-03-10T20:01:53.965Z,71.24
2019-03-10T20:04:25.275Z,69.02
2019-03-10T20:06:56.558Z,69.13
2019-03-10T20:09:27.878Z,68.48
2019-03-10T20:11:59.090Z,68.59
2019-03-10T20:14:31.444Z,68.13
2019-03-10T20:17:02.771Z,68.34
2019-03-10T20:19:34.035Z,69.20
2019-03-10T20:22:05.186Z,68.20
2019-03-10T20:24:36.573Z,68.26
2019-03-10T20:27:07.814Z,68.09
2019-03-10T20:29:38.886Z,67.76
2019-03-10T20:32:14.176Z,68.04
2019-03-10T20:34:43.193Z,68.11
2019-03-10T20:37:14.342Z,68.63
2019-03-10T20:39:45.546Z,67.85
2019-03-10T20:42:16.812Z,67.71
2019-03-10T20:44:48.173Z,68.04
2019-03-10T20:47:19.512Z,67.37
2019-03-10T20:49:50.666Z,67.79
2019-03-10T20:52:21.928Z,68.31
2019-03-10T20:54:53.132Z,67.73
2019-03-10T20:57:24.378Z,67.26
2019-03-10T21:00:00.530Z,68.09
2019-03-10T21:02:29.015Z,67.91
2019-03-10T21:05:00.352Z,68.26
2019-03-10T21:07:31.745Z,69.04
2019-03-10T21:10:03.083Z,68.86
2019-03-10T21:12:40.680Z,68.93
2019-03-10T21:15:10.370Z,69.04
2019-03-10T21:17:41.515Z,69.84
2019-03-10T21:20:15.558Z,69.86
2019-03-10T21:22:46.885Z,71.02
2019-03-10T21:25:29.985Z,71.38
2019-03-10T21:28:01.207Z,71.15
2019-03-10T21:30:33.982Z,71.64
2019-03-10T21:33:05.205Z,71.44
2019-03-10T21:35:36.407Z,71.07
2019-03-10T21:38:07.522Z,71.79
2019-03-10T21:40:38.901Z,71.64
2019-03-10T21:43:10.116Z,71.07
2019-03-10T21:45:41.420Z,71.72
2019-03-10T21:48:12.663Z,70.96
2019-03-10T21:50:43.882Z,72.06
2019-03-10T21:53:15.060Z,70.24
2019-03-10T21:55:46.382Z,71.25
2019-03-10T21:58:17.730Z,71.66
2019-03-10T22:00:48.881Z,71.26
2019-03-10T22:03:20.090Z,71.63
2019-03-10T22:05:51.481Z,71.87
2019-03-10T22:08:22.946Z,72.33
2019-03-10T22:10:54.092Z,72.56
2019-03-10T22:13:25.386Z,72.57
2019-03-10T22:15:57.071Z,72.48
2019-03-10T22:18:28.416Z,72.64
2019-03-10T22:20:59.792Z,72.71
2019-03-10T22:23:31.039Z,72.73
2019-03-10T22:26:02.276Z,72.93
2019-03-10T22:28:33.558Z,72.76
2019-03-10T22:31:04.855Z,72.93
2019-03-10T22:33:36.132Z,72.63
2019-03-10T22:36:07.543Z,72.75
2019-03-10T22:38:38.673Z,73.31
2019-03-10T22:41:09.860Z,73.05
2019-03-10T22:43:41.067Z,73.03
2019-03-10T22:46:12.730Z,72.08
2019-03-10T22:48:44.013Z,73.32
2019-03-10T22:51:15.193Z,73.55
2019-03-10T22:53:46.578Z,73.61
2019-03-10T22:56:17.785Z,73.41
2019-03-10T22:58:49.167Z,73.69
2019-03-10T23:01:20.521Z,73.68
2019-03-10T23:03:51.833Z,73.80
2019-03-10T23:06:23.189Z,73.61
2019-03-10T23:08:54.458Z,73.99
2019-03-10T23:11:25.796Z,73.39
2019-03-10T23:13:57.191Z,73.94
2019-03-10T23:16:28.385Z,74.11
2019-03-10T23:18:59.774Z,73.38
2019-03-10T23:21:31.112Z,73.65
2019-03-10T23:24:02.395Z,73.74
2019-03-10T23:26:35.035Z,73.74
2019-03-10T23:29:07.494Z,73.54
2019-03-10T23:31:40.034Z,72.98
2019-03-10T23:34:11.315Z,73.08
2019-03-10T23:36:42.756Z,74.14
2019-03-10T23:39:14.200Z,73.73
2019-03-10T23:41:45.575Z,73.82
2019-03-10T23:44:17.117Z,73.93
2019-03-10T23:46:48.550Z,74.00
2019-03-10T23:49:19.806Z,73.95
2019-03-10T23:51:51.260Z,74.44
2019-03-10T23:54:22.516Z,74.06
2019-03-10T23:56:54.463Z,74.13
2019-03-10T23:59:25.912Z,73.86
